Hamburg Township, Michigan
Current Conditions -  °F | °C
As of 10:53 PM on Saturday 25 Oct 2014 (Local Time) from KARB Reporting Station
Clear Clear  
Wind Chill: 54°   Ceiling: Unl
Heat Index: 54°   Visibility: 10mi
Dew Point: 31°   Wind: 10mph
Humidity: 41%   Direction: 300°WNW
Pressure: 29.83"   Gusts: NA
Location:  42.409°N, 83.7757°W
Report Text: KARB 260253Z AUTO 30009KT 10SM CLR 12/M01 A2983 RMK AO2 SLP100 T01221006 53010
Loading
Personal Weather Stations






























Interactive Weather Map
Tropical Storm Tracking
New forecast layout! Learn more

10-Day Weather Forecast

Advertisements
Track Severe Weather on mobile